createdAt,value
2019-05-22T00:01:00.657Z,50.57
2019-05-22T00:03:33.799Z,51.51
2019-05-22T00:06:03.096Z,51.42
2019-05-22T00:08:34.141Z,50.90
2019-05-22T00:11:04.409Z,51.07
2019-05-22T00:13:36.184Z,53.58
2019-05-22T00:16:06.027Z,52.90
2019-05-22T00:18:35.745Z,51.71
2019-05-22T00:21:05.344Z,50.75
2019-05-22T00:23:35.077Z,50.67
2019-05-22T00:26:03.773Z,52.18
2019-05-22T00:28:32.463Z,51.92
2019-05-22T00:31:01.497Z,50.77
2019-05-22T00:33:31.295Z,53.46
2019-05-22T00:36:00.805Z,53.38
2019-05-22T00:38:31.799Z,52.44
2019-05-22T00:41:05.139Z,51.53
2019-05-22T00:43:42.070Z,51.27
2019-05-22T00:46:12.829Z,51.64
2019-05-22T00:48:46.277Z,52.82
2019-05-22T00:51:29.266Z,55.09
2019-05-22T00:54:00.046Z,54.60
2019-05-22T00:56:31.670Z,53.46
2019-05-22T00:59:04.926Z,54.23
2019-05-22T01:01:38.740Z,53.37
2019-05-22T01:04:09.246Z,53.11
2019-05-22T01:06:38.480Z,52.89
2019-05-22T01:09:10.144Z,52.82
2019-05-22T01:11:39.546Z,52.26
2019-05-22T01:14:09.567Z,51.92
2019-05-22T01:16:39.572Z,51.89
2019-05-22T01:19:09.483Z,55.02
2019-05-22T01:21:38.311Z,53.94
2019-05-22T01:24:07.706Z,52.98
2019-05-22T01:26:37.011Z,52.71
2019-05-22T01:29:06.035Z,54.13
2019-05-22T01:31:37.388Z,54.96
2019-05-22T01:34:09.546Z,55.56
2019-05-22T01:36:46.200Z,54.79
2019-05-22T01:39:35.293Z,53.91
2019-05-22T01:42:06.983Z,54.26
2019-05-22T01:44:36.479Z,52.58
2019-05-22T01:47:12.225Z,52.92
2019-05-22T01:49:44.429Z,53.96
2019-05-22T01:52:13.327Z,53.89
2019-05-22T01:54:43.162Z,53.45
2019-05-22T01:57:11.790Z,53.92
2019-05-22T01:59:42.092Z,54.80
2019-05-22T02:02:12.721Z,54.07
2019-05-22T02:04:42.517Z,53.62
2019-05-22T02:07:11.813Z,53.90
2019-05-22T02:09:42.889Z,53.49
2019-05-22T02:12:16.063Z,52.75
2019-05-22T02:14:48.254Z,53.84
2019-05-22T02:17:19.983Z,53.59
2019-05-22T02:19:49.014Z,53.95
2019-05-22T02:22:18.942Z,56.02
2019-05-22T02:24:50.151Z,56.27
2019-05-22T02:27:19.830Z,55.76
2019-05-22T02:29:49.328Z,55.14
2019-05-22T02:32:20.920Z,55.11
2019-05-22T02:34:50.224Z,57.92
2019-05-22T02:37:19.631Z,58.68
2019-05-22T02:39:49.023Z,57.66
2019-05-22T02:42:26.201Z,57.74
2019-05-22T02:44:55.486Z,56.32
2019-05-22T02:47:25.104Z,56.82
2019-05-22T02:49:55.970Z,58.38
2019-05-22T02:52:26.262Z,56.92
2019-05-22T02:54:55.553Z,55.80
2019-05-22T02:57:26.468Z,55.05
2019-05-22T02:59:55.785Z,54.21
2019-05-22T03:02:26.482Z,54.06
2019-05-22T03:05:07.331Z,53.65
2019-05-22T03:07:39.212Z,54.15
2019-05-22T03:10:12.254Z,54.81
2019-05-22T03:12:41.845Z,56.41
2019-05-22T03:15:13.084Z,56.90
2019-05-22T03:17:43.572Z,57.44
2019-05-22T03:20:18.822Z,59.82
2019-05-22T03:23:18.875Z,58.57
2019-05-22T03:25:47.907Z,60.01
2019-05-22T03:28:17.214Z,58.69
2019-05-22T03:30:47.284Z,57.80
2019-05-22T03:33:16.317Z,56.99
2019-05-22T03:35:48.602Z,56.26
2019-05-22T03:38:19.072Z,56.61
2019-05-22T03:40:50.944Z,57.59
2019-05-22T03:43:29.267Z,57.77
2019-05-22T03:46:00.630Z,56.14
2019-05-22T03:48:35.052Z,55.27
2019-05-22T03:51:13.503Z,57.62
2019-05-22T03:53:44.044Z,56.55
2019-05-22T03:56:13.427Z,54.79
2019-05-22T03:58:42.132Z,53.90
2019-05-22T04:01:11.587Z,55.66
2019-05-22T04:03:40.857Z,55.63
2019-05-22T04:06:09.997Z,55.81
2019-05-22T04:08:39.571Z,54.43
2019-05-22T04:11:13.151Z,54.55
2019-05-22T04:13:41.850Z,53.67
2019-05-22T04:16:12.877Z,55.56
2019-05-22T04:18:41.786Z,54.71
2019-05-22T04:21:10.681Z,56.45
2019-05-22T04:23:40.031Z,56.45
2019-05-22T04:26:09.530Z,57.77
2019-05-22T04:28:41.120Z,55.70
2019-05-22T04:31:10.662Z,54.95
2019-05-22T04:33:39.355Z,55.03
2019-05-22T04:36:10.304Z,55.35
2019-05-22T04:38:39.360Z,54.15
2019-05-22T04:41:08.464Z,53.08
2019-05-22T04:43:37.261Z,55.32
2019-05-22T04:46:07.780Z,55.00
2019-05-22T04:48:37.807Z,55.46
2019-05-22T04:51:27.104Z,55.45
2019-05-22T04:53:56.913Z,53.64
2019-05-22T04:56:27.594Z,53.00
2019-05-22T04:58:57.004Z,52.07
2019-05-22T05:01:26.125Z,50.62
2019-05-22T05:03:54.920Z,50.69
2019-05-22T05:06:24.354Z,51.38
2019-05-22T05:08:53.143Z,52.67
2019-05-22T05:11:22.771Z,53.12
2019-05-22T05:13:51.519Z,54.65
2019-05-22T05:16:20.214Z,52.39
2019-05-22T05:18:49.104Z,51.26
2019-05-22T05:21:17.941Z,51.52
2019-05-22T05:23:47.335Z,50.87
2019-05-22T05:26:16.330Z,52.06
2019-05-22T05:28:45.489Z,52.01
2019-05-22T05:31:14.410Z,51.96
2019-05-22T05:34:08.690Z,51.40
2019-05-22T05:36:37.777Z,53.11
2019-05-22T05:39:10.591Z,51.77
2019-05-22T05:41:39.417Z,50.65
2019-05-22T05:44:08.305Z,49.92
2019-05-22T05:46:37.308Z,48.51
2019-05-22T05:49:06.843Z,49.30
2019-05-22T05:51:37.320Z,49.51
2019-05-22T05:54:09.528Z,49.38
2019-05-22T05:56:40.863Z,47.93
2019-05-22T05:59:10.589Z,48.13
2019-05-22T06:01:44.036Z,48.75
2019-05-22T06:04:13.480Z,49.77
2019-05-22T06:06:52.462Z,49.77
2019-05-22T06:09:22.895Z,49.67
2019-05-22T06:11:56.408Z,48.25
2019-05-22T06:14:32.108Z,49.06
2019-05-22T06:17:14.093Z,46.92
2019-05-22T06:19:48.846Z,48.59
2019-05-22T06:22:19.181Z,47.51
2019-05-22T06:25:01.479Z,46.88
2019-05-22T06:27:42.822Z,48.59
2019-05-22T06:30:16.538Z,46.77
2019-05-22T06:33:09.168Z,46.63
2019-05-22T06:35:38.604Z,47.70
2019-05-22T06:38:43.936Z,46.97
2019-05-22T06:41:13.784Z,47.16
2019-05-22T06:43:45.381Z,45.57
2019-05-22T06:46:16.451Z,46.41
2019-05-22T06:48:45.660Z,48.66
2019-05-22T06:51:19.551Z,48.93
2019-05-22T06:53:45.175Z,47.72
2019-05-22T06:56:13.904Z,47.35
2019-05-22T06:58:42.714Z,47.29
2019-05-22T07:01:11.905Z,48.36
2019-05-22T07:03:40.636Z,46.17
2019-05-22T07:06:09.682Z,45.18
2019-05-22T07:08:38.373Z,44.92
2019-05-22T07:11:08.768Z,44.90
2019-05-22T07:13:39.100Z,42.79
2019-05-22T07:16:07.904Z,42.01
2019-05-22T07:18:36.636Z,40.59
2019-05-22T07:21:06.642Z,41.91
2019-05-22T07:23:35.458Z,40.07
2019-05-22T07:26:04.394Z,40.16
2019-05-22T07:28:33.544Z,40.58
2019-05-22T07:31:02.846Z,39.73
2019-05-22T07:33:31.737Z,37.80
2019-05-22T07:36:10.952Z,37.89
2019-05-22T07:38:31.152Z,37.59
2019-05-22T07:41:00.136Z,38.01
2019-05-22T07:43:28.931Z,40.17
2019-05-22T07:45:57.732Z,39.24
2019-05-22T07:48:27.059Z,39.25
2019-05-22T07:50:56.862Z,39.19
2019-05-22T07:53:26.688Z,38.11
2019-05-22T07:55:56.412Z,36.60
2019-05-22T07:58:26.576Z,38.10
2019-05-22T08:00:57.385Z,37.70
2019-05-22T08:03:27.225Z,37.89
2019-05-22T08:05:58.015Z,38.88
2019-05-22T08:08:27.779Z,37.61
2019-05-22T08:10:58.222Z,37.51
2019-05-22T08:13:27.497Z,36.35
2019-05-22T08:15:56.426Z,35.25
2019-05-22T08:18:27.182Z,35.82
2019-05-22T08:20:56.183Z,36.10
2019-05-22T08:23:26.814Z,35.36
2019-05-22T08:25:58.323Z,36.53
2019-05-22T08:28:28.242Z,39.45
2019-05-22T08:30:57.340Z,37.42
2019-05-22T08:33:26.601Z,41.03
2019-05-22T08:35:56.093Z,40.28
2019-05-22T08:38:30.165Z,41.33
2019-05-22T08:41:00.982Z,42.99
2019-05-22T08:43:32.182Z,40.70
2019-05-22T08:46:01.581Z,40.31
2019-05-22T08:48:32.789Z,40.79
2019-05-22T08:51:02.929Z,40.60
2019-05-22T08:53:46.228Z,40.55
2019-05-22T08:56:03.557Z,38.98
2019-05-22T08:58:33.050Z,39.48
2019-05-22T09:01:02.829Z,39.10
2019-05-22T09:03:31.964Z,39.02
2019-05-22T09:06:00.916Z,39.71
2019-05-22T09:08:30.746Z,41.04
2019-05-22T09:10:59.512Z,40.25
2019-05-22T09:13:28.210Z,39.54
2019-05-22T09:16:01.779Z,42.28
2019-05-22T09:18:28.155Z,41.74
2019-05-22T09:20:58.244Z,40.35
2019-05-22T09:23:26.975Z,41.42
2019-05-22T09:25:56.104Z,42.22
2019-05-22T09:28:24.801Z,41.19
2019-05-22T09:30:53.502Z,39.48
2019-05-22T09:33:23.139Z,40.26
2019-05-22T09:35:51.934Z,39.95
2019-05-22T09:38:20.719Z,37.83
2019-05-22T09:40:50.155Z,38.20
2019-05-22T09:43:19.066Z,38.94
2019-05-22T09:45:47.988Z,36.25
2019-05-22T09:48:17.578Z,35.26
2019-05-22T09:50:46.368Z,35.17
2019-05-22T09:53:15.265Z,34.48
2019-05-22T09:55:47.342Z,37.32
2019-05-22T09:58:15.500Z,37.88
2019-05-22T10:00:44.194Z,37.26
2019-05-22T10:03:13.136Z,37.12
2019-05-22T10:05:42.510Z,37.80
2019-05-22T10:08:11.607Z,36.27
2019-05-22T10:10:40.752Z,36.04
2019-05-22T10:13:09.865Z,36.40
2019-05-22T10:15:39.350Z,35.51
2019-05-22T10:18:08.312Z,36.29
2019-05-22T10:20:37.290Z,35.23
2019-05-22T10:23:15.680Z,36.78
2019-05-22T10:25:37.237Z,36.95
2019-05-22T10:28:07.001Z,40.32
2019-05-22T10:30:35.972Z,40.09
2019-05-22T10:33:05.010Z,40.90
2019-05-22T10:35:34.592Z,39.10
2019-05-22T10:38:03.498Z,39.37
2019-05-22T10:40:32.652Z,39.50
2019-05-22T10:45:29.092Z,39.17
2019-05-22T10:47:57.993Z,40.14
2019-05-22T10:50:27.226Z,38.51
2019-05-22T10:52:56.785Z,38.79
2019-05-22T10:55:25.919Z,39.61
2019-05-22T10:57:54.555Z,39.66
2019-05-22T11:00:24.355Z,40.28
2019-05-22T11:02:53.292Z,40.29
2019-05-22T11:05:22.811Z,40.43
2019-05-22T11:07:52.341Z,39.95
2019-05-22T11:10:24.429Z,40.50
2019-05-22T11:12:53.910Z,39.65
2019-05-22T11:15:23.689Z,39.59
2019-05-22T11:17:53.099Z,40.59
2019-05-22T11:20:22.054Z,38.51
2019-05-22T11:22:51.479Z,38.21
2019-05-22T11:25:20.517Z,39.30
2019-05-22T11:27:49.202Z,37.06
2019-05-22T11:30:19.399Z,37.72
2019-05-22T11:32:48.746Z,37.62
2019-05-22T11:35:20.479Z,36.39
2019-05-22T11:37:49.587Z,37.08
2019-05-22T11:40:20.184Z,36.80
2019-05-22T11:42:50.396Z,36.24
2019-05-22T11:45:20.696Z,37.44
2019-05-22T11:47:49.521Z,36.44
2019-05-22T11:50:18.516Z,36.18
2019-05-22T11:52:47.510Z,35.52
2019-05-22T11:55:16.749Z,34.92
2019-05-22T11:57:47.958Z,35.28
2019-05-22T12:00:20.156Z,37.00
2019-05-22T12:02:49.691Z,35.70
2019-05-22T12:05:20.007Z,35.69
2019-05-22T12:07:49.129Z,35.11
2019-05-22T12:10:21.227Z,34.74
2019-05-22T12:12:52.918Z,35.49
2019-05-22T12:15:25.179Z,35.02
2019-05-22T12:17:54.948Z,34.76
2019-05-22T12:20:24.840Z,34.12
2019-05-22T12:22:53.530Z,33.16
2019-05-22T12:25:22.875Z,33.85
2019-05-22T12:27:51.564Z,34.07
2019-05-22T12:30:21.562Z,33.58
2019-05-22T12:32:51.967Z,33.93
2019-05-22T12:35:22.124Z,33.62
2019-05-22T12:37:51.119Z,33.85
2019-05-22T12:40:20.337Z,33.67
2019-05-22T12:42:49.839Z,34.51
2019-05-22T12:45:23.996Z,33.14
2019-05-22T12:47:53.727Z,32.34
2019-05-22T12:50:24.066Z,35.13
2019-05-22T12:52:52.867Z,33.04
2019-05-22T12:55:21.524Z,33.42
2019-05-22T12:57:50.827Z,32.23
2019-05-22T13:00:23.994Z,30.51
2019-05-22T13:02:54.314Z,30.45
2019-05-22T13:05:23.497Z,31.62
2019-05-22T13:07:52.599Z,31.90
2019-05-22T13:10:22.419Z,31.84
2019-05-22T13:12:51.851Z,31.97
2019-05-22T13:15:23.237Z,32.04
2019-05-22T13:17:54.174Z,33.35
2019-05-22T13:20:41.226Z,32.13
2019-05-22T13:22:58.222Z,32.03
2019-05-22T13:25:30.301Z,31.95
2019-05-22T13:28:01.200Z,32.39
2019-05-22T13:30:31.491Z,33.90
2019-05-22T13:33:00.421Z,33.65
2019-05-22T13:35:29.245Z,32.34
2019-05-22T13:37:59.443Z,32.61
2019-05-22T13:40:29.006Z,32.91
2019-05-22T13:42:59.101Z,32.21
2019-05-22T13:45:30.172Z,33.26
2019-05-22T13:47:59.305Z,31.24
2019-05-22T13:50:29.421Z,32.31
2019-05-22T13:53:00.831Z,32.94
2019-05-22T13:55:30.396Z,33.07
2019-05-22T13:58:00.290Z,31.41
2019-05-22T14:00:29.578Z,32.14
2019-05-22T14:02:58.904Z,32.63
2019-05-22T14:05:29.562Z,32.28
2019-05-22T14:07:58.294Z,31.41
2019-05-22T14:10:28.944Z,31.35
2019-05-22T14:12:58.330Z,31.72
2019-05-22T14:15:27.265Z,32.15
2019-05-22T14:17:56.791Z,31.78
2019-05-22T14:20:25.706Z,31.85
2019-05-22T14:22:54.686Z,32.02
2019-05-22T14:25:25.518Z,31.70
2019-05-22T14:27:54.206Z,31.61
2019-05-22T14:30:25.491Z,32.31
2019-05-22T14:32:55.625Z,31.23
2019-05-22T14:35:25.807Z,30.96
2019-05-22T14:37:54.794Z,29.99
2019-05-22T14:40:23.749Z,29.27
2019-05-22T14:42:52.541Z,30.11
2019-05-22T14:45:21.940Z,28.94
2019-05-22T14:47:50.973Z,28.13
2019-05-22T14:50:21.171Z,29.33
2019-05-22T14:52:49.860Z,29.09
2019-05-22T14:55:20.065Z,29.86
2019-05-22T14:57:48.957Z,28.96
2019-05-22T15:00:19.647Z,29.46
2019-05-22T15:02:55.205Z,28.40
2019-05-22T15:05:19.590Z,28.58
2019-05-22T15:07:48.390Z,31.03
2019-05-22T15:10:18.960Z,30.89
2019-05-22T15:12:47.928Z,30.18
2019-05-22T15:15:16.747Z,31.00
2019-05-22T15:17:45.592Z,32.75
2019-05-22T15:20:17.290Z,32.83
2019-05-22T15:22:46.106Z,32.85
2019-05-22T15:25:15.047Z,32.28
2019-05-22T15:27:44.631Z,31.79
2019-05-22T15:30:13.639Z,31.65
2019-05-22T15:32:42.470Z,31.17
2019-05-22T15:35:12.468Z,31.66
2019-05-22T15:37:42.068Z,31.17
2019-05-22T15:40:11.993Z,31.70
2019-05-22T15:42:43.828Z,31.36
2019-05-22T15:45:15.994Z,31.31
2019-05-22T15:47:54.673Z,31.66
2019-05-22T15:50:20.440Z,31.39
2019-05-22T15:52:52.235Z,31.58
2019-05-22T15:55:21.562Z,31.74
2019-05-22T15:57:50.659Z,31.83
2019-05-22T16:00:22.348Z,32.37
2019-05-22T16:02:51.640Z,33.07
2019-05-22T16:05:23.087Z,32.34
2019-05-22T16:07:53.060Z,33.29
2019-05-22T16:10:23.861Z,33.21
2019-05-22T16:12:54.385Z,37.17
2019-05-22T16:15:25.273Z,40.77
2019-05-22T16:18:10.564Z,46.98
2019-05-22T16:20:27.347Z,48.43
2019-05-22T16:22:56.914Z,51.96
2019-05-22T16:25:26.344Z,46.21
2019-05-22T16:27:56.039Z,43.86
2019-05-22T16:30:26.325Z,49.45
2019-05-22T16:32:56.394Z,51.15
2019-05-22T16:35:26.198Z,45.84
2019-05-22T16:37:57.340Z,47.83
2019-05-22T16:40:27.747Z,46.60
2019-05-22T16:42:58.686Z,46.35
2019-05-22T16:45:28.214Z,46.28
2019-05-22T16:47:58.835Z,44.55
2019-05-22T16:50:28.223Z,43.69
2019-05-22T16:52:59.776Z,44.42
2019-05-22T16:55:30.079Z,45.83
2019-05-22T16:57:58.862Z,44.44
2019-05-22T17:00:29.610Z,46.31
2019-05-22T17:02:59.411Z,47.42
2019-05-22T17:05:28.474Z,44.57
2019-05-22T17:07:58.244Z,43.92
2019-05-22T17:10:27.251Z,45.97
2019-05-22T17:12:57.250Z,42.87
2019-05-22T17:15:26.472Z,39.84
2019-05-22T17:17:55.176Z,42.97
2019-05-22T17:20:28.785Z,42.36
2019-05-22T17:22:57.932Z,42.33
2019-05-22T17:25:28.025Z,42.81
2019-05-22T17:27:56.726Z,42.73
2019-05-22T17:30:27.477Z,43.03
2019-05-22T17:32:58.501Z,43.37
2019-05-22T17:35:28.468Z,43.25
2019-05-22T17:37:58.315Z,43.12
2019-05-22T17:40:27.425Z,44.24
2019-05-22T17:42:56.529Z,45.07
2019-05-22T17:45:27.033Z,44.99
2019-05-22T17:47:56.428Z,46.11
2019-05-22T17:50:27.801Z,47.06
2019-05-22T17:52:57.170Z,46.75
2019-05-22T17:55:27.373Z,45.91
2019-05-22T17:57:56.657Z,45.63
2019-05-22T18:00:43.552Z,45.23
2019-05-22T18:03:14.000Z,48.29
2019-05-22T18:05:42.885Z,47.78
2019-05-22T18:08:12.826Z,45.16
2019-05-22T18:10:43.014Z,45.92
2019-05-22T18:13:12.818Z,45.62
2019-05-22T18:15:42.139Z,44.52
2019-05-22T18:18:11.241Z,44.47
2019-05-22T18:20:43.728Z,45.62
2019-05-22T18:23:10.799Z,45.97
2019-05-22T18:25:40.774Z,45.55
2019-05-22T18:28:10.717Z,46.40
2019-05-22T18:30:41.195Z,47.59
2019-05-22T18:33:09.926Z,49.09
2019-05-22T18:35:38.923Z,52.80
2019-05-22T18:38:07.756Z,55.70
2019-05-22T18:40:36.860Z,55.02
2019-05-22T18:43:05.564Z,53.31
2019-05-22T18:45:35.107Z,56.23
2019-05-22T18:48:04.514Z,52.78
2019-05-22T18:50:37.531Z,52.07
2019-05-22T18:53:06.850Z,51.73
2019-05-22T18:55:35.553Z,51.88
2019-05-22T18:58:04.461Z,50.81
2019-05-22T19:00:33.703Z,54.48
2019-05-22T19:03:05.584Z,53.59
2019-05-22T19:05:36.020Z,52.70
2019-05-22T19:08:04.894Z,51.62
2019-05-22T19:10:33.908Z,51.72
2019-05-22T19:13:02.807Z,52.00
2019-05-22T19:15:32.086Z,58.91
2019-05-22T19:18:02.430Z,60.58
2019-05-22T19:20:31.152Z,63.72
2019-05-22T19:23:01.738Z,61.61
2019-05-22T19:25:30.763Z,61.37
2019-05-22T19:27:59.476Z,62.74
2019-05-22T19:30:28.424Z,63.75
2019-05-22T19:32:57.125Z,63.00
2019-05-22T19:35:25.827Z,61.42
2019-05-22T19:37:55.914Z,63.37
2019-05-22T19:40:24.717Z,64.19
2019-05-22T19:42:53.612Z,63.86
2019-05-22T19:45:23.055Z,62.92
2019-05-22T19:47:54.487Z,61.67
2019-05-22T19:50:25.062Z,61.89
2019-05-22T19:52:55.181Z,60.79
2019-05-22T19:55:25.890Z,62.93
2019-05-22T19:57:55.188Z,63.50
2019-05-22T20:00:24.743Z,64.35
2019-05-22T20:02:54.703Z,63.33
2019-05-22T20:05:24.128Z,62.09
2019-05-22T20:07:53.447Z,62.95
2019-05-22T20:10:22.534Z,67.01
2019-05-22T20:12:51.439Z,68.13
2019-05-22T20:15:20.377Z,67.05
2019-05-22T20:17:49.110Z,64.77
2019-05-22T20:20:19.929Z,63.96
2019-05-22T20:22:49.753Z,63.22
2019-05-22T20:25:20.579Z,62.33
2019-05-22T20:27:49.368Z,66.21
2019-05-22T20:30:20.222Z,64.09
2019-05-22T20:32:49.444Z,63.65
2019-05-22T20:35:18.780Z,62.47
2019-05-22T20:37:48.077Z,63.09
2019-05-22T20:40:20.301Z,62.52
2019-05-22T20:42:49.212Z,62.40
2019-05-22T20:45:21.044Z,61.15
2019-05-22T20:47:54.216Z,61.18
2019-05-22T20:50:25.331Z,62.47
2019-05-22T20:52:55.045Z,63.14
2019-05-22T20:55:23.877Z,61.91
2019-05-22T20:57:53.071Z,65.65
2019-05-22T21:00:21.981Z,63.19
2019-05-22T21:02:53.616Z,64.92
2019-05-22T21:05:23.897Z,63.50
2019-05-22T21:07:55.494Z,62.00
2019-05-22T21:10:24.557Z,61.08
2019-05-22T21:12:54.366Z,61.30
2019-05-22T21:15:23.056Z,60.56
2019-05-22T21:17:52.514Z,62.38
2019-05-22T21:20:23.054Z,61.61
2019-05-22T21:22:52.325Z,60.68
2019-05-22T21:25:21.057Z,58.67
2019-05-22T21:27:50.068Z,58.57
2019-05-22T21:30:19.650Z,61.55
2019-05-22T21:32:49.171Z,62.32
2019-05-22T21:35:19.460Z,65.35
2019-05-22T21:37:48.541Z,65.11
2019-05-22T21:40:21.224Z,63.87
2019-05-22T21:42:51.283Z,63.67
2019-05-22T21:45:20.764Z,63.90
2019-05-22T21:47:49.537Z,63.78
2019-05-22T21:50:20.435Z,61.13
2019-05-22T21:52:49.122Z,59.40
2019-05-22T21:55:19.372Z,61.00
2019-05-22T21:57:48.077Z,58.81
2019-05-22T22:00:37.391Z,60.54
2019-05-22T22:03:07.800Z,61.47
2019-05-22T22:05:37.507Z,60.71
2019-05-22T22:08:06.165Z,60.18
2019-05-22T22:10:35.546Z,59.83
2019-05-22T22:13:07.789Z,60.14
2019-05-22T22:15:43.188Z,59.51
2019-05-22T22:18:13.187Z,59.04
2019-05-22T22:20:42.797Z,57.31
2019-05-22T22:23:14.595Z,58.92
2019-05-22T22:25:43.692Z,57.90
2019-05-22T22:28:15.690Z,57.01
2019-05-22T22:30:46.882Z,57.52
2019-05-22T22:33:17.781Z,56.20
2019-05-22T22:35:47.384Z,55.39
2019-05-22T22:38:16.045Z,56.73
2019-05-22T22:40:45.137Z,57.69
2019-05-22T22:43:14.228Z,56.78
2019-05-22T22:45:47.906Z,55.90
2019-05-22T22:48:18.271Z,57.05
2019-05-22T22:50:47.237Z,56.48
2019-05-22T22:53:17.118Z,55.64
2019-05-22T22:55:48.338Z,55.67
2019-05-22T22:58:19.694Z,57.57
2019-05-22T23:00:49.462Z,58.71
2019-05-22T23:03:21.968Z,58.02
2019-05-22T23:05:51.373Z,59.68
2019-05-22T23:08:26.036Z,60.53
2019-05-22T23:10:55.335Z,61.41
2019-05-22T23:13:25.339Z,59.12
2019-05-22T23:15:54.706Z,57.43
2019-05-22T23:18:45.868Z,58.48
2019-05-22T23:21:14.977Z,58.18
2019-05-22T23:23:42.379Z,59.12
2019-05-22T23:26:11.582Z,59.86
2019-05-22T23:28:42.244Z,59.00
2019-05-22T23:31:11.922Z,58.47
2019-05-22T23:33:41.016Z,58.75
2019-05-22T23:36:12.059Z,59.15
2019-05-22T23:38:41.646Z,58.03
2019-05-22T23:41:11.942Z,57.70
2019-05-22T23:43:42.385Z,56.35
2019-05-22T23:46:13.474Z,56.11
2019-05-22T23:48:43.894Z,57.43
2019-05-22T23:51:12.931Z,59.29
2019-05-22T23:53:42.819Z,57.58
2019-05-22T23:56:12.007Z,59.20
2019-05-22T23:58:52.081Z,58.38
